Time;durP1;ratioP1;P1;durP2;ratioP2;P2;SDS_P1;SDS_P2;PMS_P1;PMS_P2;Temp;Humidity;BMP_temperature;BMP_pressure;BME280_temperature;BME280_humidity;BME280_pressure;Samples;Min_cycle;Max_cycle;Signal;HPM_P1;HPM_P2
2022/06/16 00:00:15;;;;;;;;;;;;;;;;;;6013695;23;8324;-87
2022/06/16 00:02:43;;;;;;;;;;;;;;;;;;6012571;23;7075;-88
2022/06/16 00:05:11;;;;;;;;;;;;;;;;;;6013585;23;8420;-88
2022/06/16 00:07:37;;;;;;;;;;;;;;;;;;6013563;23;7873;-88
2022/06/16 00:10:03;;;;;;;;;;;;;;;;;;6013693;23;8376;-87
2022/06/16 00:12:29;;;;;;;;;;;;;;;;;;6012891;23;7160;-88
2022/06/16 00:14:54;;;;;;;;;;;;;;;;;;6013247;23;8412;-87
2022/06/16 00:17:20;;;;;;;;;;;;;;;;;;6013337;23;6985;-86
2022/06/16 00:19:45;;;;;;;;;;;;;;;;;;6013352;23;7218;-87
2022/06/16 00:22:11;;;;;;;;;;;;;;;;;;6014561;23;7245;-88
2022/06/16 00:24:37;;;;;;;;;;;;;;;;;;6013275;23;8571;-87
2022/06/16 00:27:02;;;;;;;;;;;;;;;;;;6013650;23;7021;-88
2022/06/16 00:29:28;;;;;;;;;;;;;;;;;;6013182;23;8334;-88
2022/06/16 00:31:54;;;;;;;;;;;;;;;;;;6012790;23;7024;-88
2022/06/16 00:34:19;;;;;;;;;;;;;;;;;;6013675;23;7114;-88
2022/06/16 00:36:45;;;;;;;;;;;;;;;;;;6013370;23;7163;-88
2022/06/16 00:39:11;;;;;;;;;;;;;;;;;;6012587;23;7015;-87
2022/06/16 00:41:36;;;;;;;;;;;;;;;;;;6013135;23;8924;-87
2022/06/16 00:44:13;;;;;;;;;;;;;;;;;;6013517;23;7217;-88
2022/06/16 00:46:39;;;;;;;;;;;;;;;;;;6013229;23;7242;-86
2022/06/16 00:49:08;;;;;;;;;;;;;;;;;;6012930;23;8307;-88
2022/06/16 00:51:36;;;;;;;;;;;;;;;;;;6012921;23;8624;-87
2022/06/16 00:54:08;;;;;;;;;;;;;;;;;;6012980;23;8281;-88
2022/06/16 00:56:34;;;;;;;;;;;;;;;;;;6013267;23;7359;-88
2022/06/16 00:59:02;;;;;;;;;;;;;;;;;;6012936;23;7014;-87
2022/06/16 01:01:29;;;;;;;;;;;;;;;;;;6012812;23;7042;-88
2022/06/16 01:06:38;;;;;;;;;;;;;;;;;;6013704;23;6802;-87
2022/06/16 01:09:10;;;;;;;;;;;;;;;;;;6012655;23;8359;-88
2022/06/16 01:14:53;;;;;;;;;;;;;;;;;;6013661;23;6945;-87
2022/06/16 01:17:22;;;;;;;;;;;;;;;;;;6013066;23;8692;-88
2022/06/16 01:20:11;;;;;;;;;;;;;;;;;;6013171;23;8412;-88
2022/06/16 01:22:39;;;;;;;;;;;;;;;;;;6004588;23;7215;-88
2022/06/16 01:25:15;;;;;;;;;;;;;;;;;;6013027;23;8382;-87
2022/06/16 01:27:54;;;;;;;;;;;;;;;;;;6012609;23;7231;-88
2022/06/16 01:30:27;;;;;;;;;;;;;;;;;;6013199;23;7059;-88
2022/06/16 01:33:00;;;;;;;;;;;;;;;;;;6012517;23;8283;-83
2022/06/16 01:35:44;;;;;;;;;;;;;;;;;;6013288;23;7190;-84
2022/06/16 01:38:22;;;;;;;;;;;;;;;;;;6012302;23;8401;-85
2022/06/16 01:41:17;;;;;;;;;;;;;;;;;;6012669;23;8345;-83
2022/06/16 01:43:47;;;;;;;;;;;;;;;;;;6012970;23;7160;-84
2022/06/16 01:46:19;;;;;;;;;;;;;;;;;;6012288;23;7106;-85
2022/06/16 01:48:49;;;;;;;;;;;;;;;;;;6013282;23;7167;-83
2022/06/16 01:51:29;;;;;;;;;;;;;;;;;;6012262;23;7314;-83
2022/06/16 01:54:02;;;;;;;;;;;;;;;;;;6013377;23;7021;-84
2022/06/16 01:56:43;;;;;;;;;;;;;;;;;;6012057;23;8395;-84
2022/06/16 01:59:15;;;;;;;;;;;;;;;;;;6012786;23;8745;-84
2022/06/16 02:01:44;;;;;;;;;;;;;;;;;;6012212;23;8432;-85
2022/06/16 02:04:15;;;;;;;;;;;;;;;;;;6011563;23;7995;-85
2022/06/16 02:06:45;;;;;;;;;;;;;;;;;;6011947;23;7063;-89
2022/06/16 02:09:13;;;;;;;;;;;;;;;;;;6012758;23;7172;-88
2022/06/16 02:11:42;;;;;;;;;;;;;;;;;;6011804;23;8274;-88
2022/06/16 02:14:16;;;;;;;;;;;;;;;;;;6012608;23;6990;-88
2022/06/16 02:16:44;;;;;;;;;;;;;;;;;;6012387;23;8657;-87
2022/06/16 02:19:13;;;;;;;;;;;;;;;;;;6012811;23;7051;-87
2022/06/16 02:21:41;;;;;;;;;;;;;;;;;;6012280;23;7049;-88
2022/06/16 02:24:09;;;;;;;;;;;;;;;;;;6012314;23;7120;-87
2022/06/16 02:26:36;;;;;;;;;;;;;;;;;;6012328;23;7897;-87
2022/06/16 02:29:19;;;;;;;;;;;;;;;;;;6011897;23;7328;-88
2022/06/16 02:31:52;;;;;;;;;;;;;;;;;;6012409;23;7166;-86
2022/06/16 02:34:36;;;;;;;;;;;;;;;;;;6012661;23;7119;-88
2022/06/16 02:37:05;;;;;;;;;;;;;;;;;;6012145;23;8722;-88
2022/06/16 02:39:47;;;;;;;;;;;;;;;;;;6012455;23;7198;-88
2022/06/16 02:42:21;;;;;;;;;;;;;;;;;;6012368;23;8299;-87
2022/06/16 02:45:00;;;;;;;;;;;;;;;;;;6012216;23;7176;-88
2022/06/16 02:47:54;;;;;;;;;;;;;;;;;;6013113;23;7108;-87
2022/06/16 02:50:27;;;;;;;;;;;;;;;;;;6014279;23;7122;-87
2022/06/16 02:53:11;;;;;;;;;;;;;;;;;;6014318;23;8451;-88
2022/06/16 02:55:46;;;;;;;;;;;;;;;;;;6014068;23;8362;-87
2022/06/16 02:58:15;;;;;;;;;;;;;;;;;;6014704;23;7222;-88
2022/06/16 03:00:43;;;;;;;;;;;;;;;;;;6015817;23;8408;-88
2022/06/16 03:03:21;;;;;;;;;;;;;;;;;;6013890;23;8288;-87
2022/06/16 03:05:52;;;;;;;;;;;;;;;;;;6013604;23;7034;-88
2022/06/16 03:08:19;;;;;;;;;;;;;;;;;;6014018;23;7047;-87
2022/06/16 03:10:50;;;;;;;;;;;;;;;;;;6014635;23;8450;-88
2022/06/16 03:13:16;;;;;;;;;;;;;;;;;;6014839;23;7248;-88
2022/06/16 03:15:41;;;;;;;;;;;;;;;;;;6013826;23;7025;-87
2022/06/16 03:18:07;;;;;;;;;;;;;;;;;;6013988;23;7017;-88
2022/06/16 03:20:33;;;;;;;;;;;;;;;;;;6013829;23;7233;-88
2022/06/16 03:22:58;;;;;;;;;;;;;;;;;;6013625;23;7007;-87
2022/06/16 03:25:24;;;;;;;;;;;;;;;;;;6013766;23;8678;-87
2022/06/16 03:27:49;;;;;;;;;;;;;;;;;;6013698;23;8419;-87
2022/06/16 03:30:15;;;;;;;;;;;;;;;;;;6014037;23;7207;-88
2022/06/16 03:32:40;;;;;;;;;;;;;;;;;;6013631;23;7010;-88
2022/06/16 03:35:06;;;;;;;;;;;;;;;;;;6014092;23;6977;-87
2022/06/16 03:37:32;;;;;;;;;;;;;;;;;;6013427;23;8409;-88
2022/06/16 03:39:59;;;;;;;;;;;;;;;;;;6013547;23;8715;-89
2022/06/16 03:42:25;;;;;;;;;;;;;;;;;;6013123;23;7139;-87
2022/06/16 03:44:51;;;;;;;;;;;;;;;;;;6013442;23;7011;-87
2022/06/16 03:47:17;;;;;;;;;;;;;;;;;;6013855;23;8253;-88
2022/06/16 03:49:43;;;;;;;;;;;;;;;;;;6013293;23;8479;-88
2022/06/16 03:52:08;;;;;;;;;;;;;;;;;;6014182;23;6996;-89
2022/06/16 03:54:34;;;;;;;;;;;;;;;;;;6013335;23;7076;-88
2022/06/16 03:57:00;;;;;;;;;;;;;;;;;;6013686;23;8380;-88
2022/06/16 03:59:25;;;;;;;;;;;;;;;;;;6013502;23;7338;-87
2022/06/16 04:01:51;;;;;;;;;;;;;;;;;;6014090;23;6991;-87
2022/06/16 04:04:16;;;;;;;;;;;;;;;;;;6013286;23;7009;-87
2022/06/16 04:06:42;;;;;;;;;;;;;;;;;;6013473;23;8651;-88
2022/06/16 04:09:08;;;;;;;;;;;;;;;;;;6013224;23;7000;-88
2022/06/16 04:11:33;;;;;;;;;;;;;;;;;;6012882;23;7031;-87
2022/06/16 04:14:09;;;;;;;;;;;;;;;;;;6013121;23;8558;-87
2022/06/16 04:16:39;;;;;;;;;;;;;;;;;;6012863;23;7018;-88
2022/06/16 04:19:06;;;;;;;;;;;;;;;;;;6013300;23;7029;-87
2022/06/16 04:21:31;;;;;;;;;;;;;;;;;;5989796;23;8666;-87
2022/06/16 04:23:58;;;;;;;;;;;;;;;;;;6013084;23;7077;-88
2022/06/16 04:26:24;;;;;;;;;;;;;;;;;;6013101;23;7017;-88
2022/06/16 04:28:50;;;;;;;;;;;;;;;;;;6013503;23;8293;-88
2022/06/16 04:31:15;;;;;;;;;;;;;;;;;;6012949;23;7224;-87
2022/06/16 04:33:41;;;;;;;;;;;;;;;;;;6013396;23;8456;-88
2022/06/16 04:36:08;;;;;;;;;;;;;;;;;;6013156;23;8556;-87
2022/06/16 04:38:34;;;;;;;;;;;;;;;;;;6013117;23;7413;-88
2022/06/16 04:40:59;;;;;;;;;;;;;;;;;;6013349;23;8705;-88
2022/06/16 04:43:26;;;;;;;;;;;;;;;;;;6013100;23;8202;-87
2022/06/16 04:45:52;;;;;;;;;;;;;;;;;;6012872;23;7161;-88
2022/06/16 04:48:18;;;;;;;;;;;;;;;;;;6012812;23;8107;-88
2022/06/16 04:50:43;;;;;;;;;;;;;;;;;;6013155;23;7027;-87
2022/06/16 04:53:09;;;;;;;;;;;;;;;;;;6013160;23;8355;-88
2022/06/16 04:55:35;;;;;;;;;;;;;;;;;;6013083;23;6987;-87
2022/06/16 04:58:02;;;;;;;;;;;;;;;;;;6012359;23;7221;-87
2022/06/16 05:00:28;;;;;;;;;;;;;;;;;;6012994;23;8483;-87
2022/06/16 05:02:53;;;;;;;;;;;;;;;;;;6012419;23;8835;-87
2022/06/16 05:05:19;;;;;;;;;;;;;;;;;;6013276;23;7079;-87
2022/06/16 05:07:45;;;;;;;;;;;;;;;;;;6012926;23;8377;-87
2022/06/16 05:10:11;;;;;;;;;;;;;;;;;;6012939;23;8510;-86
2022/06/16 05:12:37;;;;;;;;;;;;;;;;;;6011910;23;7087;-88
2022/06/16 05:15:04;;;;;;;;;;;;;;;;;;6013125;23;7195;-87
2022/06/16 05:17:30;;;;;;;;;;;;;;;;;;6012642;23;8441;-88
2022/06/16 05:19:55;;;;;;;;;;;;;;;;;;6012912;23;7018;-87
2022/06/16 05:22:23;;;;;;;;;;;;;;;;;;6012881;23;7118;-88
2022/06/16 05:24:50;;;;;;;;;;;;;;;;;;6012414;23;7237;-87
2022/06/16 05:27:16;;;;;;;;;;;;;;;;;;6012602;23;7162;-87
2022/06/16 05:29:42;;;;;;;;;;;;;;;;;;6012679;23;8263;-87
2022/06/16 05:32:09;;;;;;;;;;;;;;;;;;6012423;23;6812;-87
2022/06/16 05:34:35;;;;;;;;;;;;;;;;;;6012230;23;7197;-88
2022/06/16 05:37:01;;;;;;;;;;;;;;;;;;6012217;23;7022;-87
2022/06/16 05:39:26;;;;;;;;;;;;;;;;;;6012626;23;6973;-86
2022/06/16 05:41:52;;;;;;;;;;;;;;;;;;6012647;23;7045;-88
2022/06/16 05:44:17;;;;;;;;;;;;;;;;;;6006354;23;8340;-84
2022/06/16 05:46:43;;;;;;;;;;;;;;;;;;6010454;23;8599;-90
2022/06/16 05:49:11;;;;;;;;;;;;;;;;;;6010136;23;8625;-90
2022/06/16 05:51:38;;;;;;;;;;;;;;;;;;6008430;23;7101;-90
2022/06/16 05:54:03;;;;;;;;;;;;;;;;;;6010240;23;8534;-90
2022/06/16 05:56:29;;;;;;;;;;;;;;;;;;6011422;23;8673;-89
2022/06/16 05:58:54;;;;;;;;;;;;;;;;;;6010984;23;8395;-89
2022/06/16 06:01:20;;;;;;;;;;;;;;;;;;6009341;23;8638;-85
2022/06/16 06:03:45;;;;;;;;;;;;;;;;;;6010404;23;7204;-89
2022/06/16 06:06:11;;;;;;;;;;;;;;;;;;6011212;23;7211;-86
2022/06/16 06:17:05;;;;;;;;;;;;;;;;;;6011916;23;7049;-85
2022/06/16 06:19:31;;;;;;;;;;;;;;;;;;6011559;23;7022;-88
2022/06/16 06:22:34;;;;;;;;;;;;;;;;;;6010240;23;7391;-87
2022/06/16 06:24:55;;;;;;;;;;;;;;;;;;6010154;23;7207;-86
2022/06/16 06:27:20;;;;;;;;;;;;;;;;;;6011991;23;8623;-87
2022/06/16 06:29:47;;;;;;;;;;;;;;;;;;6011891;23;7382;-86
2022/06/16 06:32:14;;;;;;;;;;;;;;;;;;5995784;23;12335;-87
2022/06/16 06:34:40;;;;;;;;;;;;;;;;;;5979362;23;11804;-88
2022/06/16 06:37:06;;;;;;;;;;;;;;;;;;5990521;23;7019;-87
2022/06/16 06:39:32;;;;;;;;;;;;;;;;;;5990858;23;7017;-87
2022/06/16 06:41:58;;;;;;;;;;;;;;;;;;5990749;23;7168;-87
2022/06/16 06:44:23;;;;;;;;;;;;;;;;;;5990484;23;8377;-88
2022/06/16 06:46:49;;;;;;;;;;;;;;;;;;5989890;23;9233;-88
2022/06/16 06:49:14;;;;;;;;;;;;;;;;;;5990755;23;8286;-87
2022/06/16 06:51:40;;;;;;;;;;;;;;;;;;5990198;23;8432;-87
2022/06/16 06:54:06;;;;;;;;;;;;;;;;;;5990728;23;8379;-87
2022/06/16 06:56:32;;;;;;;;;;;;;;;;;;5990597;23;7072;-87
2022/06/16 06:59:00;;;;;;;;;;;;;;;;;;5990777;23;7224;-87
2022/06/16 07:01:27;;;;;;;;;;;;;;;;;;5990269;23;7144;-87
2022/06/16 07:03:52;;;;;;;;;;;;;;;;;;6004553;23;8333;-87
2022/06/16 07:06:19;;;;;;;;;;;;;;;;;;6012370;23;8652;-89
2022/06/16 07:08:45;;;;;;;;;;;;;;;;;;6010968;23;7026;-88
2022/06/16 07:11:11;;;;;;;;;;;;;;;;;;6010696;23;7395;-88
2022/06/16 07:13:37;;;;;;;;;;;;;;;;;;6009956;23;7144;-89
2022/06/16 07:16:02;;;;;;;;;;;;;;;;;;6010058;23;7021;-88
2022/06/16 07:18:28;;;;;;;;;;;;;;;;;;6010921;23;8294;-87
2022/06/16 07:20:54;;;;;;;;;;;;;;;;;;6011151;23;8385;-87
2022/06/16 07:23:19;;;;;;;;;;;;;;;;;;6009731;23;8360;-89
2022/06/16 07:25:46;;;;;;;;;;;;;;;;;;6010741;23;8717;-88
2022/06/16 07:28:12;;;;;;;;;;;;;;;;;;6010578;23;7208;-88
2022/06/16 07:30:38;;;;;;;;;;;;;;;;;;6010419;23;7009;-87
2022/06/16 07:33:03;;;;;;;;;;;;;;;;;;6010289;23;8308;-87
2022/06/16 07:35:29;;;;;;;;;;;;;;;;;;6009284;23;6888;-87
2022/06/16 07:37:54;;;;;;;;;;;;;;;;;;6009457;23;7161;-88
2022/06/16 07:40:21;;;;;;;;;;;;;;;;;;6010290;23;7002;-86
2022/06/16 07:42:49;;;;;;;;;;;;;;;;;;6011638;23;8249;-87
2022/06/16 07:45:15;;;;;;;;;;;;;;;;;;6013912;23;7055;-87
2022/06/16 07:47:41;;;;;;;;;;;;;;;;;;6013411;23;7027;-88
2022/06/16 07:50:08;;;;;;;;;;;;;;;;;;6013359;23;8290;-88
2022/06/16 07:52:36;;;;;;;;;;;;;;;;;;6012842;23;7040;-87
2022/06/16 07:55:03;;;;;;;;;;;;;;;;;;6013382;23;7427;-88
2022/06/16 07:57:31;;;;;;;;;;;;;;;;;;6013062;23;7215;-88
2022/06/16 07:59:58;;;;;;;;;;;;;;;;;;6014444;23;7184;-88
2022/06/16 08:02:23;;;;;;;;;;;;;;;;;;6017712;23;8416;-89
2022/06/16 08:04:49;;;;;;;;;;;;;;;;;;6017801;23;7139;-88
2022/06/16 08:07:15;;;;;;;;;;;;;;;;;;6019186;23;7089;-89
2022/06/16 08:09:40;;;;;;;;;;;;;;;;;;6018221;23;8319;-88
2022/06/16 08:12:08;;;;;;;;;;;;;;;;;;6017893;23;7034;-87
2022/06/16 08:14:39;;;;;;;;;;;;;;;;;;6018529;23;7122;-88
2022/06/16 08:17:07;;;;;;;;;;;;;;;;;;6017856;23;8269;-88
2022/06/16 08:19:32;;;;;;;;;;;;;;;;;;6017812;23;8746;-88
2022/06/16 08:21:58;;;;;;;;;;;;;;;;;;6017992;23;8449;-88
2022/06/16 08:24:23;;;;;;;;;;;;;;;;;;6018027;23;8219;-88
2022/06/16 08:26:49;;;;;;;;;;;;;;;;;;6018174;23;7029;-89
2022/06/16 08:29:17;;;;;;;;;;;;;;;;;;6018747;23;7128;-86
2022/06/16 08:31:42;;;;;;;;;;;;;;;;;;6018047;23;7020;-86
2022/06/16 08:34:08;;;;;;;;;;;;;;;;;;6017801;23;7310;-87
2022/06/16 08:36:34;;;;;;;;;;;;;;;;;;6018771;23;8359;-90
2022/06/16 08:39:00;;;;;;;;;;;;;;;;;;6017670;23;7110;-87
2022/06/16 08:41:31;;;;;;;;;;;;;;;;;;6017817;23;7100;-86
2022/06/16 08:43:56;;;;;;;;;;;;;;;;;;6017881;23;8684;-86
2022/06/16 08:46:27;;;;;;;;;;;;;;;;;;6018021;23;8388;-86
2022/06/16 08:49:01;;;;;;;;;;;;;;;;;;6017539;23;7317;-84
2022/06/16 08:51:28;;;;;;;;;;;;;;;;;;6018042;23;7480;-84
2022/06/16 08:53:57;;;;;;;;;;;;;;;;;;6017786;23;8300;-83
2022/06/16 08:56:25;;;;;;;;;;;;;;;;;;6017726;23;7213;-84
2022/06/16 08:59:09;;;;;;;;;;;;;;;;;;6017989;23;7259;-83
2022/06/16 09:01:41;;;;;;;;;;;;;;;;;;6017594;23;8571;-83
2022/06/16 09:04:15;;;;;;;;;;;;;;;;;;6017664;23;8305;-84
2022/06/16 09:06:56;;;;;;;;;;;;;;;;;;6017485;23;7170;-84
2022/06/16 09:12:25;;;;;;;;;;;;;;;;;;6041439;23;6705;-85
2022/06/16 09:17:47;;;;;;;;;;;;;;;;;;6043302;23;6903;-81
2022/06/16 09:20:17;;;;;;;;;;;;;;;;;;6017163;23;7261;-84
2022/06/16 09:22:52;;;;;;;;;;;;;;;;;;6017349;23;8332;-85
2022/06/16 09:25:18;;;;;;;;;;;;;;;;;;6017652;23;8427;-85
2022/06/16 09:27:57;;;;;;;;;;;;;;;;;;6017588;23;8289;-85
2022/06/16 09:30:27;;;;;;;;;;;;;;;;;;6017866;23;7235;-86
2022/06/16 09:33:01;;;;;;;;;;;;;;;;;;6016948;23;7609;-85
2022/06/16 09:35:34;;;;;;;;;;;;;;;;;;6017135;23;8632;-86
2022/06/16 09:38:12;;;;;;;;;;;;;;;;;;6017892;23;8336;-86
2022/06/16 09:40:43;;;;;;;;;;;;;;;;;;6017282;23;7171;-86
2022/06/16 09:43:21;;;;;;;;;;;;;;;;;;6018946;23;8707;-85
2022/06/16 09:46:09;;;;;;;;;;;;;;;;;;6017687;23;8607;-85
2022/06/16 09:48:42;;;;;;;;;;;;;;;;;;6017402;23;8279;-85
2022/06/16 09:51:14;;;;;;;;;;;;;;;;;;6017662;23;8457;-86
2022/06/16 09:53:55;;;;;;;;;;;;;;;;;;6017715;23;8691;-85
2022/06/16 09:56:27;;;;;;;;;;;;;;;;;;6017275;23;8315;-86
2022/06/16 09:59:07;;;;;;;;;;;;;;;;;;6017569;23;8625;-86
2022/06/16 10:01:40;;;;;;;;;;;;;;;;;;6017960;23;8681;-85
2022/06/16 10:04:06;;;;;;;;;;;;;;;;;;6016969;23;8479;-85
2022/06/16 10:06:35;;;;;;;;;;;;;;;;;;6016864;23;8335;-85
2022/06/16 10:09:39;;;;;;;;;;;;;;;;;;6017063;23;8438;-86
2022/06/16 10:12:10;;;;;;;;;;;;;;;;;;5901369;24;7016;-85
2022/06/16 10:14:46;;;;;;;;;;;;;;;;;;5901651;24;7192;-85
2022/06/16 10:17:15;;;;;;;;;;;;;;;;;;5878180;24;8530;-90
2022/06/16 10:19:44;;;;;;;;;;;;;;;;;;5872738;24;8565;-90
2022/06/16 10:22:12;;;;;;;;;;;;;;;;;;5874960;24;7075;-88
2022/06/16 10:24:42;;;;;;;;;;;;;;;;;;5875597;24;8433;-87
2022/06/16 10:27:11;;;;;;;;;;;;;;;;;;5876091;24;8484;-89
2022/06/16 10:29:36;;;;;;;;;;;;;;;;;;5876550;24;8733;-91
2022/06/16 10:32:03;;;;;;;;;;;;;;;;;;5875412;24;6845;-86
2022/06/16 10:34:31;;;;;;;;;;;;;;;;;;5875296;24;7063;-88
2022/06/16 10:37:01;;;;;;;;;;;;;;;;;;5876737;24;7213;-88
2022/06/16 10:39:47;;;;;;;;;;;;;;;;;;5877420;24;8407;-87
2022/06/16 10:42:17;;;;;;;;;;;;;;;;;;5932878;23;7162;-87
2022/06/16 10:44:53;;;;;;;;;;;;;;;;;;6017243;23;7061;-89
2022/06/16 10:47:32;;;;;;;;;;;;;;;;;;6016532;23;8596;-88
2022/06/16 10:49:58;;;;;;;;;;;;;;;;;;6017296;23;8436;-87
2022/06/16 10:52:28;;;;;;;;;;;;;;;;;;6016447;23;8849;-89
2022/06/16 10:54:59;;;;;;;;;;;;;;;;;;6016264;23;8489;-88
2022/06/16 10:57:26;;;;;;;;;;;;;;;;;;6016618;23;8424;-88
2022/06/16 11:00:01;;;;;;;;;;;;;;;;;;6014702;23;7052;-88
2022/06/16 11:02:29;;;;;;;;;;;;;;;;;;6010770;23;8409;-89
2022/06/16 11:05:01;;;;;;;;;;;;;;;;;;6011562;23;8430;-87
2022/06/16 11:07:29;;;;;;;;;;;;;;;;;;6012920;23;7066;-88
2022/06/16 11:10:01;;;;;;;;;;;;;;;;;;6012160;23;7042;-88
2022/06/16 11:12:27;;;;;;;;;;;;;;;;;;6013132;23;8292;-87
2022/06/16 11:14:56;;;;;;;;;;;;;;;;;;6013573;23;8841;-88
2022/06/16 11:17:25;;;;;;;;;;;;;;;;;;6013702;23;8359;-88
2022/06/16 11:19:58;;;;;;;;;;;;;;;;;;6013608;23;8480;-88
2022/06/16 11:22:30;;;;;;;;;;;;;;;;;;6013528;23;8498;-88
2022/06/16 11:25:01;;;;;;;;;;;;;;;;;;6014241;23;8508;-87
2022/06/16 11:27:28;;;;;;;;;;;;;;;;;;6014005;23;8400;-88
2022/06/16 11:29:54;;;;;;;;;;;;;;;;;;6013856;23;8424;-89
2022/06/16 11:32:24;;;;;;;;;;;;;;;;;;6013850;23;8328;-88
2022/06/16 11:34:51;;;;;;;;;;;;;;;;;;6014995;23;8879;-87
2022/06/16 11:37:39;;;;;;;;;;;;;;;;;;6016020;23;7179;-88
2022/06/16 11:40:21;;;;;;;;;;;;;;;;;;6013767;23;7040;-88
2022/06/16 11:42:50;;;;;;;;;;;;;;;;;;6014458;23;7052;-89
2022/06/16 11:45:30;;;;;;;;;;;;;;;;;;6013341;23;6852;-88
2022/06/16 11:48:12;;;;;;;;;;;;;;;;;;6013161;23;7376;-89
2022/06/16 11:50:59;;;;;;;;;;;;;;;;;;6013952;23;7067;-89
2022/06/16 11:53:54;;;;;;;;;;;;;;;;;;5957901;23;8399;-90
2022/06/16 11:56:39;;;;;;;;;;;;;;;;;;6013978;23;7053;-88
2022/06/16 11:59:16;;;;;;;;;;;;;;;;;;6013898;23;7508;-89
2022/06/16 12:01:44;;;;;;;;;;;;;;;;;;6013973;23;9091;-89
2022/06/16 12:04:46;;;;;;;;;;;;;;;;;;6012734;23;7049;-88
2022/06/16 12:07:29;;;;;;;;;;;;;;;;;;5906268;24;6938;-90
2022/06/16 12:10:01;;;;;;;;;;;;;;;;;;5928934;24;9140;-89
2022/06/16 12:12:38;;;;;;;;;;;;;;;;;;5928550;24;8348;-90
2022/06/16 12:15:18;;;;;;;;;;;;;;;;;;5906190;24;8383;-89
2022/06/16 12:17:45;;;;;;;;;;;;;;;;;;5905636;24;7199;-90
2022/06/16 12:20:13;;;;;;;;;;;;;;;;;;5928458;24;8529;-90
2022/06/16 12:22:57;;;;;;;;;;;;;;;;;;5928765;24;7285;-90
2022/06/16 12:25:31;;;;;;;;;;;;;;;;;;5929197;24;8709;-90
2022/06/16 12:28:06;;;;;;;;;;;;;;;;;;5928392;24;8455;-88
2022/06/16 12:30:41;;;;;;;;;;;;;;;;;;5906451;24;8389;-85
2022/06/16 12:33:16;;;;;;;;;;;;;;;;;;5905218;24;8660;-86
2022/06/16 12:35:57;;;;;;;;;;;;;;;;;;5905453;24;8531;-85
2022/06/16 12:38:26;;;;;;;;;;;;;;;;;;5905575;24;7066;-85
2022/06/16 12:40:59;;;;;;;;;;;;;;;;;;5959208;23;8478;-86
2022/06/16 12:43:30;;;;;;;;;;;;;;;;;;6013230;23;8385;-86
2022/06/16 12:46:00;;;;;;;;;;;;;;;;;;6012582;23;7462;-87
2022/06/16 12:48:31;;;;;;;;;;;;;;;;;;6013732;23;7518;-84
2022/06/16 12:51:00;;;;;;;;;;;;;;;;;;6012574;23;8531;-85
2022/06/16 12:53:35;;;;;;;;;;;;;;;;;;6012307;23;8442;-85
2022/06/16 12:56:08;;;;;;;;;;;;;;;;;;6012184;23;8526;-81
2022/06/16 12:58:56;;;;;;;;;;;;;;;;;;6012692;23;8958;-80
2022/06/16 13:01:22;;;;;;;;;;;;;;;;;;6012382;23;8462;-81
2022/06/16 13:03:47;;;;;;;;;;;;;;;;;;6012382;23;8369;-81
2022/06/16 13:06:16;;;;;;;;;;;;;;;;;;6012684;23;6999;-83
2022/06/16 13:08:45;;;;;;;;;;;;;;;;;;6012874;23;7543;-83
2022/06/16 13:11:19;;;;;;;;;;;;;;;;;;6012361;23;7290;-84
2022/06/16 13:13:54;;;;;;;;;;;;;;;;;;6012473;23;7088;-84
2022/06/16 13:16:25;;;;;;;;;;;;;;;;;;6012895;23;7004;-85
2022/06/16 13:18:55;;;;;;;;;;;;;;;;;;6012653;23;8495;-85
2022/06/16 13:21:30;;;;;;;;;;;;;;;;;;6013547;23;6948;-85
2022/06/16 13:24:10;;;;;;;;;;;;;;;;;;6012380;23;8502;-86
2022/06/16 13:26:40;;;;;;;;;;;;;;;;;;6012420;23;7126;-85
2022/06/16 13:29:06;;;;;;;;;;;;;;;;;;6012254;23;8354;-84
2022/06/16 13:31:44;;;;;;;;;;;;;;;;;;6012120;23;8406;-85
2022/06/16 13:34:12;;;;;;;;;;;;;;;;;;6012237;23;8450;-86
2022/06/16 13:36:40;;;;;;;;;;;;;;;;;;6012317;23;8449;-85
2022/06/16 13:39:08;;;;;;;;;;;;;;;;;;6012735;23;8448;-84
2022/06/16 13:41:43;;;;;;;;;;;;;;;;;;5954014;23;11948;-84
2022/06/16 13:44:18;;;;;;;;;;;;;;;;;;6009395;23;8381;-84
2022/06/16 13:47:06;;;;;;;;;;;;;;;;;;6010427;23;9270;-87
2022/06/16 13:49:32;;;;;;;;;;;;;;;;;;5994256;23;9123;-85
2022/06/16 13:52:27;;;;;;;;;;;;;;;;;;6010293;23;8396;-87
2022/06/16 13:55:04;;;;;;;;;;;;;;;;;;5985706;23;8513;-85
2022/06/16 13:57:35;;;;;;;;;;;;;;;;;;6010430;23;8805;-87
2022/06/16 14:00:04;;;;;;;;;;;;;;;;;;6011390;23;7068;-86
2022/06/16 14:02:32;;;;;;;;;;;;;;;;;;6009600;23;8794;-87
2022/06/16 14:05:09;;;;;;;;;;;;;;;;;;6011197;23;8357;-79
2022/06/16 14:07:52;;;;;;;;;;;;;;;;;;6010838;23;7181;-85
2022/06/16 14:10:24;;;;;;;;;;;;;;;;;;6012026;23;8491;-85
2022/06/16 14:13:07;;;;;;;;;;;;;;;;;;6011708;23;7071;-86
2022/06/16 14:16:05;;;;;;;;;;;;;;;;;;6012310;23;8699;-85
2022/06/16 14:18:51;;;;;;;;;;;;;;;;;;5886970;23;8654;-85
2022/06/16 14:21:20;;;;;;;;;;;;;;;;;;6039855;23;6816;-82
2022/06/16 14:23:53;;;;;;;;;;;;;;;;;;6019916;23;6827;-85
2022/06/16 14:26:22;;;;;;;;;;;;;;;;;;6022308;23;7059;-85
2022/06/16 14:28:50;;;;;;;;;;;;;;;;;;6016391;23;8732;-84
2022/06/16 14:31:20;;;;;;;;;;;;;;;;;;6012172;23;9292;-85
2022/06/16 14:33:52;;;;;;;;;;;;;;;;;;6014626;23;8425;-81
2022/06/16 14:36:23;;;;;;;;;;;;;;;;;;6012156;23;7045;-81
2022/06/16 14:38:54;;;;;;;;;;;;;;;;;;6012580;23;8465;-81
2022/06/16 14:41:28;;;;;;;;;;;;;;;;;;6012567;23;8603;-84
2022/06/16 14:44:10;;;;;;;;;;;;;;;;;;6013480;23;8841;-84
2022/06/16 14:46:46;;;;;;;;;;;;;;;;;;6013761;23;7011;-79
2022/06/16 14:49:15;;;;;;;;;;;;;;;;;;6014657;23;8461;-84
2022/06/16 14:51:45;;;;;;;;;;;;;;;;;;6013908;23;8275;-87
2022/06/16 14:54:23;;;;;;;;;;;;;;;;;;6013673;23;8676;-84
2022/06/16 14:56:52;;;;;;;;;;;;;;;;;;6014643;23;7260;-85
2022/06/16 14:59:19;;;;;;;;;;;;;;;;;;6013782;23;7140;-81
2022/06/16 15:01:48;;;;;;;;;;;;;;;;;;6014557;23;8837;-85
2022/06/16 15:04:18;;;;;;;;;;;;;;;;;;6013508;23;8419;-85
2022/06/16 15:06:48;;;;;;;;;;;;;;;;;;6014327;23;7523;-85
2022/06/16 15:09:18;;;;;;;;;;;;;;;;;;6013823;23;8471;-79
2022/06/16 15:11:45;;;;;;;;;;;;;;;;;;6014052;23;8680;-84
2022/06/16 15:14:15;;;;;;;;;;;;;;;;;;6014329;23;8757;-84
2022/06/16 15:19:33;;;;;;;;;;;;;;;;;;6016345;23;7045;-84
2022/06/16 15:22:00;;;;;;;;;;;;;;;;;;6013902;23;8543;-84
2022/06/16 15:24:40;;;;;;;;;;;;;;;;;;6013741;23;7073;-84
2022/06/16 15:27:07;;;;;;;;;;;;;;;;;;6013697;23;7173;-84
2022/06/16 15:29:39;;;;;;;;;;;;;;;;;;6013461;23;7071;-83
2022/06/16 15:32:05;;;;;;;;;;;;;;;;;;6013874;23;7267;-84
2022/06/16 15:37:16;;;;;;;;;;;;;;;;;;6014721;23;6825;-78
2022/06/16 15:39:43;;;;;;;;;;;;;;;;;;6013471;23;8483;-78
2022/06/16 15:42:17;;;;;;;;;;;;;;;;;;6013663;23;8749;-83
2022/06/16 15:44:46;;;;;;;;;;;;;;;;;;6015142;23;6839;-86
2022/06/16 15:47:17;;;;;;;;;;;;;;;;;;6013472;23;9041;-83
2022/06/16 15:49:51;;;;;;;;;;;;;;;;;;6013236;23;7176;-83
2022/06/16 15:52:39;;;;;;;;;;;;;;;;;;6013191;23;8526;-84
2022/06/16 15:55:11;;;;;;;;;;;;;;;;;;6012287;23;7078;-82
2022/06/16 15:57:38;;;;;;;;;;;;;;;;;;6012942;23;8621;-82
2022/06/16 16:00:08;;;;;;;;;;;;;;;;;;6013344;23;8522;-82
2022/06/16 16:02:37;;;;;;;;;;;;;;;;;;6013567;23;7097;-83
2022/06/16 16:05:04;;;;;;;;;;;;;;;;;;6013373;23;7408;-84
2022/06/16 16:07:33;;;;;;;;;;;;;;;;;;6014034;23;8623;-84
2022/06/16 16:10:00;;;;;;;;;;;;;;;;;;6013675;23;7330;-83
2022/06/16 16:12:31;;;;;;;;;;;;;;;;;;6012409;23;7197;-84
2022/06/16 16:15:09;;;;;;;;;;;;;;;;;;6013536;23;7285;-83
2022/06/16 16:17:55;;;;;;;;;;;;;;;;;;6012822;23;7150;-83
2022/06/16 16:20:23;;;;;;;;;;;;;;;;;;6012024;23;8506;-84
2022/06/16 16:22:58;;;;;;;;;;;;;;;;;;6013369;23;8431;-83
2022/06/16 16:25:32;;;;;;;;;;;;;;;;;;6014509;23;8487;-83
2022/06/16 16:27:58;;;;;;;;;;;;;;;;;;6013357;23;8752;-84
2022/06/16 16:30:25;;;;;;;;;;;;;;;;;;6012992;23;8467;-84
2022/06/16 16:32:52;;;;;;;;;;;;;;;;;;6013378;23;8421;-84
2022/06/16 16:35:20;;;;;;;;;;;;;;;;;;6013186;23;8452;-84
2022/06/16 16:37:47;;;;;;;;;;;;;;;;;;6012768;23;7215;-85
2022/06/16 16:42:59;;;;;;;;;;;;;;;;;;6013228;23;8469;-85
2022/06/16 16:43:09;;;;;;;;;;;;;;;;;;6013584;23;7246;-84
2022/06/16 16:45:37;;;;;;;;;;;;;;;;;;6013000;23;8551;-84
2022/06/16 16:48:03;;;;;;;;;;;;;;;;;;6013343;23;8315;-85
2022/06/16 16:50:29;;;;;;;;;;;;;;;;;;6012634;23;8624;-84
2022/06/16 16:53:04;;;;;;;;;;;;;;;;;;6012752;23;8691;-84
2022/06/16 16:55:29;;;;;;;;;;;;;;;;;;6013122;23;8835;-83
2022/06/16 16:57:55;;;;;;;;;;;;;;;;;;6011892;23;6997;-83
2022/06/16 17:00:22;;;;;;;;;;;;;;;;;;6012919;23;7733;-84
2022/06/16 17:02:48;;;;;;;;;;;;;;;;;;6012397;23;7733;-84
2022/06/16 17:05:15;;;;;;;;;;;;;;;;;;6013066;23;7150;-85
2022/06/16 17:07:40;;;;;;;;;;;;;;;;;;6011832;23;7147;-85
2022/06/16 17:10:12;;;;;;;;;;;;;;;;;;6012961;23;7017;-84
2022/06/16 17:12:44;;;;;;;;;;;;;;;;;;6012077;23;8422;-86
2022/06/16 17:15:11;;;;;;;;;;;;;;;;;;6012954;23;8612;-82
2022/06/16 17:17:38;;;;;;;;;;;;;;;;;;6012569;23;8452;-87
2022/06/16 17:20:05;;;;;;;;;;;;;;;;;;6012327;23;8323;-85
2022/06/16 17:22:30;;;;;;;;;;;;;;;;;;6012733;23;8476;-86
2022/06/16 17:24:56;;;;;;;;;;;;;;;;;;6012197;23;8515;-86
2022/06/16 17:27:22;;;;;;;;;;;;;;;;;;6012225;23;7179;-85
2022/06/16 17:29:47;;;;;;;;;;;;;;;;;;6012633;23;7013;-85
2022/06/16 17:32:16;;;;;;;;;;;;;;;;;;6012148;23;8428;-86
2022/06/16 17:34:43;;;;;;;;;;;;;;;;;;6011828;23;7081;-86
2022/06/16 17:37:21;;;;;;;;;;;;;;;;;;6012416;23;9522;-85
2022/06/16 17:39:47;;;;;;;;;;;;;;;;;;6012258;23;8329;-85
2022/06/16 17:42:14;;;;;;;;;;;;;;;;;;6012751;23;8437;-85
2022/06/16 17:44:40;;;;;;;;;;;;;;;;;;6012557;23;8587;-85
2022/06/16 17:47:05;;;;;;;;;;;;;;;;;;6013241;23;8411;-85
2022/06/16 17:49:31;;;;;;;;;;;;;;;;;;6012422;23;8389;-85